Zenken Maru — JG5556 — position and weather

sailwx.info

Track history (hours):
 
Tides and Currents Weather Stations Pressure Air Temp Water Temp Dewpoint Dewpoint Depression Visibility Wind Speed Wind Dir Waves Ship Positions

Zenken Maru

Last reported at 2017-Feb-25 09:31 UTC. Time now 2017-Feb-26 00:53 UTC.
Position N 34°51' E 139°47'.

Length 98 m; draft 7.2 m.

Type: Cargo ship. MMSI: 431100955.

Date/timePositionNaut miles runAvg speedWind from/ knotsBaromVisibWave heightAir tempDewpointWater temp
2017-Feb-25 09:31N 34°51' E 139°47'1010.6
2017-Feb-25 08:33N 35°01' E 139°44'1110.7
2017-Feb-25 07:33N 35°11' E 139°46'1010.4
2017-Feb-25 06:33N 35°21' E 139°42'3 2.9
2017-Feb-25 05:33N 35°23' E 139°39'0 0.0
2017-Feb-25 04:31N 35°23' E 139°39'0 0.1
2017-Feb-25 03:34N 35°23' E 139°39'0 0.0
2017-Feb-25 02:34N 35°23' E 139°39'0 0.0
2017-Feb-25 01:34N 35°23' E 139°39'0 0.0
2017-Feb-25 00:33N 35°23' E 139°39'0 0.0
2017-Feb-24 23:33N 35°23' E 139°39'3 2.7
2017-Feb-24 22:33N 35°21' E 139°41'0 0.0
2017-Feb-24 21:33N 35°21' E 139°41'0 0.0
2017-Feb-24 20:33N 35°21' E 139°41'0 0.0
2017-Feb-24 19:33N 35°21' E 139°41'0 0.0
2017-Feb-24 18:30N 35°21' E 139°41'0 0.0
2017-Feb-24 17:33N 35°21' E 139°41'0 0.0
2017-Feb-24 16:33N 35°21' E 139°41'0 0.0
2017-Feb-24 15:33N 35°21' E 139°41'0 0.0
2017-Feb-24 14:33N 35°21' E 139°41'0 0.0
2017-Feb-24 13:33N 35°21' E 139°41'0 0.0
2017-Feb-24 12:33N 35°21' E 139°41'0 0.0
2017-Feb-24 11:33N 35°21' E 139°41'0 0.0
2017-Feb-24 10:33N 35°21' E 139°41'0 0.0
2017-Feb-24 09:33N 35°21' E 139°41'0 0.1
2017-Feb-24 08:33N 35°21' E 139°41'0 0.0
2017-Feb-24 07:33N 35°21' E 139°41'0 0.0
2017-Feb-24 06:33N 35°21' E 139°41'0 0.0
2017-Feb-24 05:33N 35°21' E 139°41'0 0.0
2017-Feb-24 04:33N 35°21' E 139°41'0 0.0
2017-Feb-24 03:33N 35°21' E 139°41'0 0.0
2017-Feb-24 02:33N 35°21' E 139°41'0 0.0
2017-Feb-24 01:33N 35°21' E 139°41'0 0.0
2017-Feb-24 00:33N 35°21' E 139°41'0 0.0
2017-Feb-23 23:33N 35°21' E 139°41'0 0.0
2017-Feb-23 22:33N 35°21' E 139°41'0 0.0
2017-Feb-23 21:33N 35°21' E 139°41'0 0.0
2017-Feb-23 20:33N 35°21' E 139°41'0 0.0
2017-Feb-23 19:33N 35°21' E 139°41'0 0.0
2017-Feb-23 18:33N 35°21' E 139°41'0 0.0
2017-Feb-23 17:33N 35°21' E 139°41'0 0.0
2017-Feb-23 16:33N 35°21' E 139°41'0 0.0
2017-Feb-23 15:33N 35°21' E 139°41'0 0.0
2017-Feb-23 14:33N 35°21' E 139°41'0 0.0
2017-Feb-23 13:33N 35°21' E 139°41'0 0.0
2017-Feb-23 12:33N 35°21' E 139°41'0 0.0
2017-Feb-23 11:33N 35°21' E 139°41'0 0.0
2017-Feb-23 10:33N 35°21' E 139°41'0 0.0
2017-Feb-23 09:33N 35°21' E 139°41'0 0.1
2017-Feb-23 08:33N 35°21' E 139°41'0 0.0
2017-Feb-23 07:33N 35°21' E 139°41'0 0.1
2017-Feb-23 06:30N 35°21' E 139°41'0 0.0
2017-Feb-23 05:33N 35°21' E 139°41'3 2.6
2017-Feb-23 04:33N 35°23' E 139°39'0 0.0
2017-Feb-23 03:26N 35°23' E 139°39'0 0.0
2017-Feb-23 02:32N 35°23' E 139°39'0 0.0
2017-Feb-23 01:32N 35°23' E 139°39'0 0.0
2017-Feb-23 00:29N 35°23' E 139°39'0 0.0
2017-Feb-22 23:32N 35°23' E 139°39'0 0.3
2017-Feb-22 22:34N 35°23' E 139°39'8 7.6
2017-Feb-22 21:33N 35°17' E 139°45'9 9.0
2017-Feb-22 20:33N 35°08' E 139°46'8 8.1
2017-Feb-22 19:33N 35°01' E 139°44'7 6.7
2017-Feb-22 18:32N 34°54' E 139°46'8 0.2
2017-Feb-21 05:33N 35°01' E 139°44'1211.5
2017-Feb-21 04:33N 35°13' E 139°46'1111.2
2017-Feb-21 03:34N 35°23' E 139°41'1 1.3
2017-Feb-21 02:33N 35°23' E 139°39'0 0.0
2017-Feb-21 01:32N 35°23' E 139°39'0 0.0
2017-Feb-21 00:32N 35°23' E 139°39'0 0.0
2017-Feb-20 23:32N 35°23' E 139°39'3 3.0
2017-Feb-20 22:33N 35°21' E 139°41'0 0.1
2017-Feb-20 21:32N 35°21' E 139°41'0 0.0
2017-Feb-20 20:33N 35°21' E 139°41'0 0.0
2017-Feb-20 19:33N 35°21' E 139°41'0 0.0
2017-Feb-20 18:33N 35°21' E 139°41'0 0.0
2017-Feb-20 17:33N 35°21' E 139°41'0 0.0
2017-Feb-20 16:33N 35°21' E 139°41'0 0.0
2017-Feb-20 15:33N 35°21' E 139°41'0 0.0
2017-Feb-20 14:33N 35°21' E 139°41'0 0.0
2017-Feb-20 13:34N 35°21' E 139°41'0 0.1
2017-Feb-20 12:34N 35°21' E 139°41'0 0.1
2017-Feb-20 11:33N 35°21' E 139°41'0 0.1
2017-Feb-20 10:33N 35°21' E 139°41'0 0.1
2017-Feb-20 09:33N 35°21' E 139°41'0 0.0
2017-Feb-20 08:33N 35°21' E 139°41'0 0.1
2017-Feb-20 07:34N 35°21' E 139°41'1 0.6
2017-Feb-20 06:33N 35°21' E 139°41'0 0.3
2017-Feb-20 05:34N 35°21' E 139°41'0 0.1
2017-Feb-20 04:33N 35°21' E 139°41'0 0.1
2017-Feb-20 03:33N 35°21' E 139°41'0 0.0
2017-Feb-20 02:33N 35°21' E 139°41'0 0.0
2017-Feb-20 01:33N 35°21' E 139°41'0 0.0
2017-Feb-20 00:33N 35°21' E 139°41'0 0.0
2017-Feb-19 23:33N 35°21' E 139°41'0 0.0
2017-Feb-19 22:34N 35°21' E 139°41'0 0.0
2017-Feb-19 21:33N 35°21' E 139°41'0 0.0
2017-Feb-19 20:34N 35°21' E 139°41'0 0.1
2017-Feb-19 19:34N 35°21' E 139°41'0 0.0
2017-Feb-19 18:33N 35°21' E 139°41'0 0.0
2017-Feb-19 17:33N 35°21' E 139°41'0 0.1
2017-Feb-19 16:33N 35°21' E 139°41'0 0.0
2017-Feb-19 15:33N 35°21' E 139°41'0 0.1
2017-Feb-19 14:33N 35°21' E 139°41'0 0.0
2017-Feb-19 13:33N 35°21' E 139°41'0 0.0
2017-Feb-19 12:33N 35°21' E 139°41'0 0.0
2017-Feb-19 11:33N 35°21' E 139°41'0 0.0
2017-Feb-19 10:33N 35°21' E 139°41'0 0.0
2017-Feb-19 09:33N 35°21' E 139°41'0 0.0
2017-Feb-19 08:33N 35°21' E 139°41'0 0.0
2017-Feb-19 07:33N 35°21' E 139°41'0 0.0
2017-Feb-19 06:33N 35°21' E 139°41'0 0.0
2017-Feb-19 05:33N 35°21' E 139°41'0 0.0
2017-Feb-19 04:33N 35°21' E 139°41'0 0.0
2017-Feb-19 03:33N 35°21' E 139°41'0 0.1
2017-Feb-19 02:33N 35°21' E 139°41'0 0.0
2017-Feb-19 01:33N 35°21' E 139°41'0 0.0
2017-Feb-19 00:33N 35°21' E 139°41'0 0.0
2017-Feb-18 23:33N 35°21' E 139°41'0 0.0
2017-Feb-18 22:33N 35°21' E 139°41'0 0.0
2017-Feb-18 21:33N 35°21' E 139°41'0 0.0
2017-Feb-18 20:33N 35°21' E 139°41'0 0.0
2017-Feb-18 19:33N 35°21' E 139°41'0 0.0
2017-Feb-18 18:33N 35°21' E 139°41'0 0.0
2017-Feb-18 17:33N 35°21' E 139°41'0 0.0
2017-Feb-18 16:33N 35°21' E 139°41'0 0.1
2017-Feb-18 15:33N 35°21' E 139°41'0 0.1
2017-Feb-18 14:33N 35°21' E 139°41'0 0.0
2017-Feb-18 13:33N 35°21' E 139°41'0 0.0
2017-Feb-18 12:33N 35°21' E 139°41'0 0.0
2017-Feb-18 11:33N 35°21' E 139°41'0 0.1
2017-Feb-18 10:33N 35°21' E 139°41'0 0.0
2017-Feb-18 09:33N 35°21' E 139°41'0 0.1
2017-Feb-18 08:33N 35°21' E 139°41'0 0.1
2017-Feb-18 07:33N 35°21' E 139°41'0 0.0
2017-Feb-18 06:33N 35°21' E 139°41'0 0.0
2017-Feb-18 05:33N 35°21' E 139°41'3 2.7
2017-Feb-18 04:33N 35°23' E 139°39'0 0.0
2017-Feb-18 03:33N 35°23' E 139°39'0 0.0
2017-Feb-18 02:33N 35°23' E 139°39'0 0.0
2017-Feb-18 01:33N 35°23' E 139°39'0 0.0
2017-Feb-18 00:33N 35°23' E 139°39'0 0.0
2017-Feb-17 23:33N 35°23' E 139°39'0 0.1
2017-Feb-17 22:34N 35°23' E 139°39'3 2.7
2017-Feb-17 21:33N 35°21' E 139°41'0 0.4
2017-Feb-17 20:34N 35°21' E 139°41'0 0.3
2017-Feb-17 19:34N 35°21' E 139°41'0 0.0
2017-Feb-17 18:34N 35°21' E 139°41'5 4.7
2017-Feb-17 17:33N 35°17' E 139°45'1110.6
2017-Feb-17 16:33N 35°07' E 139°45'1010.1
2017-Feb-17 15:33N 34°57' E 139°44'12 0.3
2017-Feb-16 03:22N 35°08' E 139°45'911.3
2017-Feb-16 02:33N 35°17' E 139°44'7 7.4
2017-Feb-16 01:34N 35°23' E 139°39'0 0.0
2017-Feb-16 00:34N 35°23' E 139°39'0 0.0
2017-Feb-15 23:34N 35°23' E 139°39'0 0.0
2017-Feb-15 22:34N 35°23' E 139°39'0 0.0
2017-Feb-15 21:34N 35°23' E 139°39'0 0.0
2017-Feb-15 20:34N 35°23' E 139°39'0 0.0
2017-Feb-15 19:33N 35°23' E 139°39'0 0.0
2017-Feb-15 18:34N 35°23' E 139°39'0 0.0
2017-Feb-15 17:34N 35°23' E 139°39'0 0.0
2017-Feb-15 16:33N 35°23' E 139°39'0 0.0
2017-Feb-15 15:33N 35°23' E 139°39'0 0.0
2017-Feb-15 14:33N 35°23' E 139°39'0 0.0
2017-Feb-15 13:34N 35°23' E 139°39'0 0.0
2017-Feb-15 12:33N 35°23' E 139°39'0 0.0
2017-Feb-15 11:33N 35°23' E 139°39'0 0.0
2017-Feb-15 10:33N 35°23' E 139°39'0 0.0
2017-Feb-15 09:34N 35°23' E 139°39'  
Track history (hours):
 
Tides and Currents Weather Stations Pressure Air Temp Water Temp Dewpoint Dewpoint Depression Visibility Wind Speed Wind Dir Waves Ship Positions

Zenken Maru

Last reported at 2017-Feb-25 09:31 UTC. Time now 2017-Feb-26 00:53 UTC.
Position N 34°51' E 139°47'.

Length 98 m; draft 7.2 m.

Type: Cargo ship. MMSI: 431100955.

Date/timePositionNaut miles runAvg speedWind from/ knotsBaromVisibWave heightAir tempDewpointWater temp
2017-Feb-25 09:31N 34°51' E 139°47'1010.6
2017-Feb-25 08:33N 35°01' E 139°44'1110.7
2017-Feb-25 07:33N 35°11' E 139°46'1010.4
2017-Feb-25 06:33N 35°21' E 139°42'3 2.9
2017-Feb-25 05:33N 35°23' E 139°39'0 0.0
2017-Feb-25 04:31N 35°23' E 139°39'0 0.1
2017-Feb-25 03:34N 35°23' E 139°39'0 0.0
2017-Feb-25 02:34N 35°23' E 139°39'0 0.0
2017-Feb-25 01:34N 35°23' E 139°39'0 0.0
2017-Feb-25 00:33N 35°23' E 139°39'0 0.0
2017-Feb-24 23:33N 35°23' E 139°39'3 2.7
2017-Feb-24 22:33N 35°21' E 139°41'0 0.0
2017-Feb-24 21:33N 35°21' E 139°41'0 0.0
2017-Feb-24 20:33N 35°21' E 139°41'0 0.0
2017-Feb-24 19:33N 35°21' E 139°41'0 0.0
2017-Feb-24 18:30N 35°21' E 139°41'0 0.0
2017-Feb-24 17:33N 35°21' E 139°41'0 0.0
2017-Feb-24 16:33N 35°21' E 139°41'0 0.0
2017-Feb-24 15:33N 35°21' E 139°41'0 0.0
2017-Feb-24 14:33N 35°21' E 139°41'0 0.0
2017-Feb-24 13:33N 35°21' E 139°41'0 0.0
2017-Feb-24 12:33N 35°21' E 139°41'0 0.0
2017-Feb-24 11:33N 35°21' E 139°41'0 0.0
2017-Feb-24 10:33N 35°21' E 139°41'0 0.0
2017-Feb-24 09:33N 35°21' E 139°41'0 0.1
2017-Feb-24 08:33N 35°21' E 139°41'0 0.0
2017-Feb-24 07:33N 35°21' E 139°41'0 0.0
2017-Feb-24 06:33N 35°21' E 139°41'0 0.0
2017-Feb-24 05:33N 35°21' E 139°41'0 0.0
2017-Feb-24 04:33N 35°21' E 139°41'0 0.0
2017-Feb-24 03:33N 35°21' E 139°41'0 0.0
2017-Feb-24 02:33N 35°21' E 139°41'0 0.0
2017-Feb-24 01:33N 35°21' E 139°41'0 0.0
2017-Feb-24 00:33N 35°21' E 139°41'0 0.0
2017-Feb-23 23:33N 35°21' E 139°41'0 0.0
2017-Feb-23 22:33N 35°21' E 139°41'0 0.0
2017-Feb-23 21:33N 35°21' E 139°41'0 0.0
2017-Feb-23 20:33N 35°21' E 139°41'0 0.0
2017-Feb-23 19:33N 35°21' E 139°41'0 0.0
2017-Feb-23 18:33N 35°21' E 139°41'0 0.0
2017-Feb-23 17:33N 35°21' E 139°41'0 0.0
2017-Feb-23 16:33N 35°21' E 139°41'0 0.0
2017-Feb-23 15:33N 35°21' E 139°41'0 0.0
2017-Feb-23 14:33N 35°21' E 139°41'0 0.0
2017-Feb-23 13:33N 35°21' E 139°41'0 0.0
2017-Feb-23 12:33N 35°21' E 139°41'0 0.0
2017-Feb-23 11:33N 35°21' E 139°41'0 0.0
2017-Feb-23 10:33N 35°21' E 139°41'0 0.0
2017-Feb-23 09:33N 35°21' E 139°41'0 0.1
2017-Feb-23 08:33N 35°21' E 139°41'0 0.0
2017-Feb-23 07:33N 35°21' E 139°41'0 0.1
2017-Feb-23 06:30N 35°21' E 139°41'0 0.0
2017-Feb-23 05:33N 35°21' E 139°41'3 2.6
2017-Feb-23 04:33N 35°23' E 139°39'0 0.0
2017-Feb-23 03:26N 35°23' E 139°39'0 0.0
2017-Feb-23 02:32N 35°23' E 139°39'0 0.0
2017-Feb-23 01:32N 35°23' E 139°39'0 0.0
2017-Feb-23 00:29N 35°23' E 139°39'0 0.0
2017-Feb-22 23:32N 35°23' E 139°39'0 0.3
2017-Feb-22 22:34N 35°23' E 139°39'8 7.6
2017-Feb-22 21:33N 35°17' E 139°45'9 9.0
2017-Feb-22 20:33N 35°08' E 139°46'8 8.1
2017-Feb-22 19:33N 35°01' E 139°44'7 6.7
2017-Feb-22 18:32N 34°54' E 139°46'8 0.2
2017-Feb-21 05:33N 35°01' E 139°44'1211.5
2017-Feb-21 04:33N 35°13' E 139°46'1111.2
2017-Feb-21 03:34N 35°23' E 139°41'1 1.3
2017-Feb-21 02:33N 35°23' E 139°39'0 0.0
2017-Feb-21 01:32N 35°23' E 139°39'0 0.0
2017-Feb-21 00:32N 35°23' E 139°39'0 0.0
2017-Feb-20 23:32N 35°23' E 139°39'3 3.0
2017-Feb-20 22:33N 35°21' E 139°41'0 0.1
2017-Feb-20 21:32N 35°21' E 139°41'0 0.0
2017-Feb-20 20:33N 35°21' E 139°41'0 0.0
2017-Feb-20 19:33N 35°21' E 139°41'0 0.0
2017-Feb-20 18:33N 35°21' E 139°41'0 0.0
2017-Feb-20 17:33N 35°21' E 139°41'0 0.0
2017-Feb-20 16:33N 35°21' E 139°41'0 0.0
2017-Feb-20 15:33N 35°21' E 139°41'0 0.0
2017-Feb-20 14:33N 35°21' E 139°41'0 0.0
2017-Feb-20 13:34N 35°21' E 139°41'0 0.1
2017-Feb-20 12:34N 35°21' E 139°41'0 0.1
2017-Feb-20 11:33N 35°21' E 139°41'0 0.1
2017-Feb-20 10:33N 35°21' E 139°41'0 0.1
2017-Feb-20 09:33N 35°21' E 139°41'0 0.0
2017-Feb-20 08:33N 35°21' E 139°41'0 0.1
2017-Feb-20 07:34N 35°21' E 139°41'1 0.6
2017-Feb-20 06:33N 35°21' E 139°41'0 0.3
2017-Feb-20 05:34N 35°21' E 139°41'0 0.1
2017-Feb-20 04:33N 35°21' E 139°41'0 0.1
2017-Feb-20 03:33N 35°21' E 139°41'0 0.0
2017-Feb-20 02:33N 35°21' E 139°41'0 0.0
2017-Feb-20 01:33N 35°21' E 139°41'0 0.0
2017-Feb-20 00:33N 35°21' E 139°41'0 0.0
2017-Feb-19 23:33N 35°21' E 139°41'0 0.0
2017-Feb-19 22:34N 35°21' E 139°41'0 0.0
2017-Feb-19 21:33N 35°21' E 139°41'0 0.0
2017-Feb-19 20:34N 35°21' E 139°41'0 0.1
2017-Feb-19 19:34N 35°21' E 139°41'0 0.0
2017-Feb-19 18:33N 35°21' E 139°41'0 0.0
2017-Feb-19 17:33N 35°21' E 139°41'0 0.1
2017-Feb-19 16:33N 35°21' E 139°41'0 0.0
2017-Feb-19 15:33N 35°21' E 139°41'0 0.1
2017-Feb-19 14:33N 35°21' E 139°41'0 0.0
2017-Feb-19 13:33N 35°21' E 139°41'0 0.0
2017-Feb-19 12:33N 35°21' E 139°41'0 0.0
2017-Feb-19 11:33N 35°21' E 139°41'0 0.0
2017-Feb-19 10:33N 35°21' E 139°41'0 0.0
2017-Feb-19 09:33N 35°21' E 139°41'0 0.0
2017-Feb-19 08:33N 35°21' E 139°41'0 0.0
2017-Feb-19 07:33N 35°21' E 139°41'0 0.0
2017-Feb-19 06:33N 35°21' E 139°41'0 0.0
2017-Feb-19 05:33N 35°21' E 139°41'0 0.0
2017-Feb-19 04:33N 35°21' E 139°41'0 0.0
2017-Feb-19 03:33N 35°21' E 139°41'0 0.1
2017-Feb-19 02:33N 35°21' E 139°41'0 0.0
2017-Feb-19 01:33N 35°21' E 139°41'0 0.0
2017-Feb-19 00:33N 35°21' E 139°41'0 0.0
2017-Feb-18 23:33N 35°21' E 139°41'0 0.0
2017-Feb-18 22:33N 35°21' E 139°41'0 0.0
2017-Feb-18 21:33N 35°21' E 139°41'0 0.0
2017-Feb-18 20:33N 35°21' E 139°41'0 0.0
2017-Feb-18 19:33N 35°21' E 139°41'0 0.0
2017-Feb-18 18:33N 35°21' E 139°41'0 0.0
2017-Feb-18 17:33N 35°21' E 139°41'0 0.0
2017-Feb-18 16:33N 35°21' E 139°41'0 0.1
2017-Feb-18 15:33N 35°21' E 139°41'0 0.1
2017-Feb-18 14:33N 35°21' E 139°41'0 0.0
2017-Feb-18 13:33N 35°21' E 139°41'0 0.0
2017-Feb-18 12:33N 35°21' E 139°41'0 0.0
2017-Feb-18 11:33N 35°21' E 139°41'0 0.1
2017-Feb-18 10:33N 35°21' E 139°41'0 0.0
2017-Feb-18 09:33N 35°21' E 139°41'0 0.1
2017-Feb-18 08:33N 35°21' E 139°41'0 0.1
2017-Feb-18 07:33N 35°21' E 139°41'0 0.0
2017-Feb-18 06:33N 35°21' E 139°41'0 0.0
2017-Feb-18 05:33N 35°21' E 139°41'3 2.7
2017-Feb-18 04:33N 35°23' E 139°39'0 0.0
2017-Feb-18 03:33N 35°23' E 139°39'0 0.0
2017-Feb-18 02:33N 35°23' E 139°39'0 0.0
2017-Feb-18 01:33N 35°23' E 139°39'0 0.0
2017-Feb-18 00:33N 35°23' E 139°39'0 0.0
2017-Feb-17 23:33N 35°23' E 139°39'0 0.1
2017-Feb-17 22:34N 35°23' E 139°39'3 2.7
2017-Feb-17 21:33N 35°21' E 139°41'0 0.4
2017-Feb-17 20:34N 35°21' E 139°41'0 0.3
2017-Feb-17 19:34N 35°21' E 139°41'0 0.0
2017-Feb-17 18:34N 35°21' E 139°41'5 4.7
2017-Feb-17 17:33N 35°17' E 139°45'1110.6
2017-Feb-17 16:33N 35°07' E 139°45'1010.1
2017-Feb-17 15:33N 34°57' E 139°44'12 0.3
2017-Feb-16 03:22N 35°08' E 139°45'911.3
2017-Feb-16 02:33N 35°17' E 139°44'7 7.4
2017-Feb-16 01:34N 35°23' E 139°39'0 0.0
2017-Feb-16 00:34N 35°23' E 139°39'0 0.0
2017-Feb-15 23:34N 35°23' E 139°39'0 0.0
2017-Feb-15 22:34N 35°23' E 139°39'0 0.0
2017-Feb-15 21:34N 35°23' E 139°39'0 0.0
2017-Feb-15 20:34N 35°23' E 139°39'0 0.0
2017-Feb-15 19:33N 35°23' E 139°39'0 0.0
2017-Feb-15 18:34N 35°23' E 139°39'0 0.0
2017-Feb-15 17:34N 35°23' E 139°39'0 0.0
2017-Feb-15 16:33N 35°23' E 139°39'0 0.0
2017-Feb-15 15:33N 35°23' E 139°39'0 0.0
2017-Feb-15 14:33N 35°23' E 139°39'0 0.0
2017-Feb-15 13:34N 35°23' E 139°39'0 0.0
2017-Feb-15 12:33N 35°23' E 139°39'0 0.0
2017-Feb-15 11:33N 35°23' E 139°39'0 0.0
2017-Feb-15 10:33N 35°23' E 139°39'0 0.0
2017-Feb-15 09:34N 35°23' E 139°39'  

Dump ship's entire track history